Hlavní strana
METAR-TAF:

METAR-TAF

Letiště :

Québec, Québec, Kanada

zeměpisná šířka: 46-48N, zeměpisná délka: 071-23W, výška: 70 m

Aktuální stav počasí

Zpráva byla vytvořena před 12 minutami, v 19:00 UTC
Jihozápadní vítr 13 kt s nárazy do 18 kt
Teplota 14°C
Vlhkost vzduchu 31%
Tlak 1028 hPa
Viditelnost: 48.3 km
Oblačno až skoro zataženo ve výšce 20000 ft

METAR: CYQB 231900Z 23013G18KT 30SM BKN200 14/M03 A3035 RMK CI7 SLP281

Čas: 15:12 (19:12 UTC)

Předpověď počasí

Zpráva byla vytvořena před 1 hodinou a 33 minutami, v 17:39 UTC
Předpověď platná od 23 v 18 UTC do 24 v 18 UTC
Jihozápadní vítr 12 kt
Viditelnost: 10 km
Oblačno až skoro zataženo ve výšce 24000 ft
Změna
od 23 v 20 UTC do 23 v 22 UTC
Jihozápadní vítr 8 kt
Od 24 v 1600 UTC
Západojihozápadní vítr 12 kt
Viditelnost: 10 km
Polojasno ve výšce 6000 ft

TAF: CYQB 231739Z 2318/2418 22012KT P6SM BKN240 BECMG 2320/2322 22008KT FM241600 24012KT P6SM SCT060 RMK NXT FCST BY 240000Z

Stav a předpovědi počasí z více než 4 000 letišť (zprávy METAR a TAF).

Červené a žluté tečky na mapě představují dostupné meteorologické stanice.

Když kurzor umístíte na tečku, zobrazí se název stanice.

Pak kliknutím zobrazíte stav a předpověď počasí.

Chcete-li změnit mapu, kliknutím na zelené tlačítko se znaménkem +mapu přiblížíte, kliknutím na zelené tlačítko se znaménkem – mapu oddálíte a kliknutím na zelené šipky přejdete na sousední mapy.


METAR-TAF: